Impacts METAR Board INFO
IDs:

KCLT - Charlotte/Douglas In, NC, US

Updated at: 2256 UTC 21 Feb 2018
Potential Impact None Slight Moderate High
Time21/10Z 21/11Z 21/12Z 21/13Z 21/14Z 21/15Z 21/16Z 21/17Z 21/18Z 21/19Z 21/20Z 21/21Z 21/22Z
VIS 10 10 10 10 10 10 10 10 10 10
CIG 20 19 17 26 20 26 28 43 34 --
CoverBKNOVCOVCOVCBKNOVCBKNBKNBKNSCT
FltCatMVFRMVFRMVFRMVFRMVFRMVFRMVFRVFRVFRVFR
WX--------------------
WDir180170210190190220190190190200
WSpd 6 7 7 10 10 9 11 7 7 9
WGst -- -- -- -- -- -- -- -- -- --
Raw hourly METARs



KCLT 211252Z 18006KT 10SM SCT008 BKN020 BKN035 19/18 A3045 RMK AO2 SLP307 T01890183
KCLT 211352Z 17007KT 10SM SCT008 BKN019 OVC027 20/19 A3046 RMK AO2 SLP309 T02000189
KCLT 211452Z 21007KT 10SM FEW012 BKN017 OVC075 21/18 A3046 RMK AO2 SLP310 T02060183 51007
KCLT 211552Z 19010KT 10SM FEW016 BKN026 OVC075 22/18 A3046 RMK AO2 SLP310 T02220183
KCLT 211652Z 19010KT 10SM BKN020 BKN030 BKN070 23/18 A3046 RMK AO2 SLP308 T02330178
KCLT 211752Z 22009KT 10SM BKN026 BKN034 OVC075 24/18 A3044 RMK AO2 SLP300 T02390178 10244 20183 58009
KCLT 211852Z 19011KT 10SM BKN028 BKN037 BKN075 25/18 A3042 RMK AO2 SLP293 T02500178
KCLT 211952Z 19007KT 10SM SCT033 BKN043 26/18 A3040 RMK AO2 SLP286 T02560178
KCLT 212052Z 19007KT 10SM BKN034 BKN041 26/17 A3038 RMK AO2 SLP281 T02560172 56018
KCLT 212152Z 20009KT 10SM FEW065 SCT080 26/17 A3037 RMK AO2 SLP278 T02560172